Data for 06/26/2009

Time Sea-Level Adjusted Pressure Absolute Pressure Temperature Relative Humidity Dew Point   
(mb) (inHg) (mb) (inHg) (C) (F) (%) (C) (F)
00:05 1017 30.03 846 24.98 16.6 61.9 52 6.9 44.5
00:10 1017 30.03 846 24.98 16.7 62 52 7 44.6
00:15 1017 30.03 846 24.98 17 62.6 50 6.7 44.1
00:20 1017 30.03 847 25.01 17.1 62.8 52 7.2 45
00:25 1017 30.03 847 25.01 16.9 62.3 54 7.5 45.4
00:30 1017 30.03 847 25.01 16.6 61.8 54 7.3 45.2
00:35 1017 30.03 847 25.01 16.2 61.1 55 7.1 44.8
00:40 1017 30.03 847 25.01 16.2 61.2 52 6.6 43.8
00:45 1017 30.03 847 25.01 16.6 61.9 52 6.8 44.2
00:50 1017 30.03 847 25.01 16.5 61.6 52 6.8 44.2
00:55 1017 30.03 847 25.01 16.2 61.2 53 6.8 44.2
01:00 1017 30.03 847 25.01 16 60.8 53 6.5 43.8
01:05 1017 30.03 847 25.01 16.1 60.9 55 7.1 44.7
01:10 1017 30.03 847 25.01 15.5 59.9 59 7.5 45.5
01:15 1018 30.06 847 25.01 14.9 58.8 57 6.5 43.8
01:20 1018 30.06 847 25.01 15.1 59.1 59 7.1 44.8
01:25 1018 30.06 847 25.01 15.4 59.7 53 6.1 42.9
01:30 1018 30.06 847 25.01 15.8 60.4 54 6.5 43.7
01:35 1018 30.06 847 25.01 15.8 60.4 54 6.6 44
01:40 1018 30.06 847 25.01 15.6 60 54 6.4 43.5
01:45 1018 30.06 847 25.01 15.5 59.8 54 6.3 43.3
01:50 1018 30.06 847 25.01 15.4 59.7 53 5.9 42.6
01:55 1018 30.06 847 25.01 15.6 60.1 51 5.7 42.3
02:00 1018 30.06 847 25.01 15.4 59.7 54 6.1 43
02:05 1018 30.06 847 25.01 14.9 58.8 54 5.9 42.5
02:10 1018 30.06 847 25.01 14.6 58.3 57 6.2 43.1
02:15 1018 30.06 847 25.01 14.4 58 54 5.3 41.5
02:20 1018 30.06 847 25.01 14.7 58.4 54 5.4 41.8
02:25 1018 30.06 847 25.01 14.2 57.6 55 5.5 41.9
02:30 1018 30.06 847 25.01 14 57.3 54 4.9 40.8
02:35 1018 30.06 847 25.01 14.2 57.6 57 5.9 42.6
02:40 1018 30.06 847 25.01 13.7 56.7 59 5.9 42.5
02:45 1018 30.06 847 25.01 13.6 56.5 55 4.8 40.7
02:50 1018 30.06 847 25.01 13.9 57 54 4.9 40.8
02:55 1018 30.06 847 25.01 14.2 57.5 52 4.5 40.1
03:00 1018 30.06 847 25.01 14.1 57.3 56 5.4 41.7
03:05 1018 30.06 847 25.01 13.9 57 54 4.7 40.4
03:10 1018 30.06 847 25.01 14 57.2 52 4.5 40.1
03:15 1018 30.06 847 25.01 14.1 57.4 52 4.4 39.9
03:20 1018 30.06 847 25.01 14 57.2 55 5.2 41.3
03:25 1018 30.06 847 25.01 13.7 56.6 54 4.7 40.4
03:30 1018 30.06 847 25.01 13.7 56.6 58 5.5 41.9
03:35 1018 30.06 847 25.01 13.3 55.9 57 5.1 41.3
03:40 1018 30.06 847 25.01 13.1 55.7 58 5.2 41.4
03:45 1018 30.06 847 25.01 13.1 55.6 58 5.2 41.4
03:50 1018 30.06 847 25.01 13.1 55.6 56 4.6 40.3
03:55 1018 30.06 847 25.01 13.3 55.9 57 5.1 41.2
04:00 1018 30.06 847 25.01 13.3 55.9 57 5.1 41.1
04:05 1018 30.06 847 25.01 13.2 55.8 56 4.8 40.6
04:10 1018 30.06 847 25.01 13.3 55.9 58 5.2 41.3
04:15 1018 30.06 847 25.01 13.1 55.6 57 5 40.9
04:20 1018 30.06 847 25.01 13.1 55.7 57 4.8 40.6
04:25 1018 30.06 847 25.01 13.1 55.6 56 4.7 40.4
04:30 1018 30.06 847 25.01 13.2 55.8 56 4.7 40.5
04:35 1018 30.06 847 25.01 13.3 55.9 56 4.9 40.7
04:40 1018 30.06 847 25.01 13.2 55.7 56 4.7 40.5
04:45 1018 30.06 847 25.01 13.1 55.6 57 4.8 40.7
04:50 1018 30.06 847 25.01 13.1 55.5 58 5.1 41.2
04:55 1018 30.06 847 25.01 13 55.3 57 4.6 40.3
05:00 1017 30.03 847 25.01 13.1 55.6 56 4.6 40.2
05:05 1017 30.03 847 25.01 12.9 55.2 57 4.7 40.5
05:10 1017 30.03 847 25.01 12.8 55.1 57 4.7 40.5
05:15 1017 30.03 847 25.01 12.6 54.7 60 5 41
05:20 1017 30.03 847 25.01 12.5 54.4 60 5 41
05:25 1018 30.06 847 25.01 12.4 54.4 60 4.9 40.9
05:30 1018 30.06 847 25.01 12.5 54.4 58 4.5 40.1
05:35 1017 30.03 847 25.01 12.5 54.4 59 4.8 40.6
05:40 1017 30.03 847 25.01 12.6 54.6 57 4.4 39.9
05:45 1017 30.03 847 25.01 12.7 54.9 55 4 39.3
05:50 1017 30.03 847 25.01 12.9 55.2 55 4 39.2
05:55 1017 30.03 847 25.01 12.9 55.2 54 3.9 39.1
06:00 1017 30.03 847 25.01 12.8 55 55 4 39.1
06:05 1017 30.03 847 25.01 12.5 54.6 57 4.2 39.6
06:10 1017 30.03 847 25.01 12.4 54.3 59 4.6 40.2
06:15 1018 30.06 847 25.01 12.3 54.2 59 4.5 40.1
06:20 1018 30.06 847 25.01 12.4 54.3 58 4.3 39.8
06:25 1018 30.06 847 25.01 12.5 54.6 57 4.2 39.5
06:30 1018 30.06 847 25.01 12.7 54.9 56 4.1 39.4
06:35 1018 30.06 847 25.01 12.9 55.2 54 3.9 39
06:40 1018 30.06 847 25.01 13.1 55.5 53 3.9 39
06:45 1018 30.06 847 25.01 13.3 55.9 52 3.7 38.7
06:50 1018 30.06 847 25.01 13.4 56.1 50 3.3 38
06:55 1018 30.06 847 25.01 13.6 56.5 49 3.1 37.6
07:00 1018 30.06 847 25.01 13.6 56.5 52 4.1 39.4
07:05 1018 30.06 847 25.01 13.5 56.3 49 3.1 37.5
07:10 1018 30.06 847 25.01 13.6 56.5 53 4.2 39.6
07:15 1018 30.06 847 25.01 13.5 56.3 48 2.9 37.1
07:20 1018 30.06 847 25.01 13.6 56.5 48 2.8 37
07:25 1018 30.06 847 25.01 13.7 56.6 52 4 39.2
07:30 1018 30.06 847 25.01 13.7 56.6 52 4.2 39.5
07:35 1018 30.06 847 25.01 13.8 56.9 53 4.6 40.3
07:40 1018 30.06 847 25.01 13.9 57.1 55 5.2 41.4
07:45 1018 30.06 847 25.01 13.8 56.9 55 4.9 40.9
07:50 1018 30.06 847 25.01 13.9 57 54 4.8 40.6
07:55 1018 30.06 847 25.01 13.7 56.7 58 5.7 42.2
08:00 1018 30.06 847 25.01 13.6 56.5 55 4.7 40.5
08:05 1018 30.06 847 25.01 13.8 56.9 59 6 42.8
08:10 1018 30.06 847 25.01 13.9 57.1 55 5.1 41.1
08:15 1018 30.06 847 25.01 14.1 57.4 55 5.4 41.6
08:20 1018 30.06 847 25.01 14.2 57.5 53 4.7 40.4
08:25 1018 30.06 847 25.01 14.1 57.4 54 4.9 40.9
08:30 1018 30.06 847 25.01 14.1 57.3 55 5.2 41.4
08:35 1018 30.06 847 25.01 14.1 57.4 56 5.6 42.1
08:40 1018 30.06 848 25.04 14.1 57.4 52 4.5 40
08:45 1019 30.09 848 25.04 14.4 58 48 3.7 38.7
08:50 1019 30.09 848 25.04 14.5 58.1 47 3.4 38.1
08:55 1019 30.09 848 25.04 14.4 57.9 48 3.5 38.4
09:00 1019 30.09 848 25.04 14.5 58.1 49 3.9 39
09:05 1019 30.09 848 25.04 14.7 58.5 48 4 39.2
09:10 1019 30.09 848 25.04 14.8 58.6 49 4.4 39.8
09:15 1019 30.09 848 25.04 14.6 58.4 49 4.2 39.5
09:20 1019 30.09 848 25.04 14.9 58.9 45 3.2 37.8
09:25 1019 30.09 848 25.04 15.1 59.1 46 3.7 38.7
09:30 1018 30.06 848 25.04 15 59 48 4.1 39.4
09:35 1018 30.06 848 25.04 14.9 58.8 47 3.7 38.6
09:40 1018 30.06 848 25.04 14.9 58.8 47 3.8 38.9
09:45 1018 30.06 847 25.01 14.7 58.5 46 3.3 37.9
09:50 1018 30.06 847 25.01 15 59 46 3.5 38.4
09:55 1018 30.06 847 25.01 15.5 59.8 42 2.8 37
10:00 1018 30.06 847 25.01 15.5 59.9 42 2.8 37
10:05 1018 30.06 847 25.01 15.4 59.6 43 3 37.4
10:10 1018 30.06 847 25.01 15.6 60 43 3.2 37.8
10:15 1018 30.06 847 25.01 15.8 60.5 43 3.5 38.4
10:20 1018 30.06 847 25.01 15.9 60.7 44 4 39.1
10:25 1018 30.06 847 25.01 15.9 60.5 45 4 39.3
10:30 1018 30.06 847 25.01 15.4 59.8 46 3.8 38.8
10:35 1018 30.06 847 25.01 15.2 59.3 46 3.7 38.7
10:40 1018 30.06 847 25.01 15.5 59.9 45 3.6 38.5
10:45 1018 30.06 847 25.01 15.3 59.5 46 4 39.1
10:50 1018 30.06 847 25.01 15.5 60 44 3.5 38.4
10:55 1018 30.06 847 25.01 15.6 60.2 46 4.1 39.5
11:00 1018 30.06 847 25.01 16 60.9 39 2 35.7
11:05 1018 30.06 847 25.01 16.3 61.3 39 2.4 36.4
11:10 1018 30.06 847 25.01 17.1 62.8 37 2.3 36.1
11:15 1018 30.06 847 25.01 17.5 63.5 35 2.1 35.7
11:20 1018 30.06 847 25.01 17.2 63 36 2.2 36
11:25 1018 30.06 847 25.01 17.2 63 37 2.4 36.3
11:30 1018 30.06 847 25.01 17.3 63.2 42 4.3 39.7
11:35 1018 30.06 847 25.01 16.5 61.8 46 5.1 41.1
11:40 1018 30.06 847 25.01 16.9 62.4 43 4.3 39.8
11:45 1018 30.06 847 25.01 17 62.6 43 4.4 39.9
11:50 1017 30.03 847 25.01 17.3 63.1 44 5.1 41.1
11:55 1017 30.03 847 25.01 17.4 63.4 38 3 37.4
12:00 1017 30.03 847 25.01 17.6 63.7 36 2.6 36.7
12:05 1017 30.03 847 25.01 17.9 64.1 36 2.7 36.8
12:10 1017 30.03 847 25.01 18 64.4 36 2.9 37.3
12:15 1017 30.03 846 24.98 18.1 64.6 36 3 37.3
12:20 1017 30.03 846 24.98 18.2 64.7 35 2.7 36.9
12:25 1017 30.03 846 24.98 18.9 66.1 33 2.3 36.1
12:30 1017 30.03 846 24.98 19.5 67.1 32 2.5 36.5
12:35 1017 30.03 846 24.98 19.8 67.6 29 1.6 34.8
12:40 1017 30.03 846 24.98 20.1 68.2 31 2.4 36.4
12:45 1017 30.03 846 24.98 20.1 68.2 28 1.1 33.9
12:50 1017 30.03 846 24.98 20.3 68.5 32 3.3 38
12:55 1017 30.03 846 24.98 20.3 68.6 31 2.6 36.8
13:00 1017 30.03 846 24.98 20.6 69.1 30 2.6 36.7
13:05 1017 30.03 846 24.98 20.3 68.6 30 2.4 36.3
13:10 1017 30.03 846 24.98 20.6 69.2 29 2.3 36.1
13:15 1016 30 846 24.98 21.2 70.2 28 2.1 35.7
13:20 1016 30 846 24.98 20.8 69.4 28 1.7 35.1
13:25 1016 30 845 24.95 21.2 70.1 27 1.6 34.9
13:30 1016 30 845 24.95 21.5 70.6 27 1.7 35
13:35 1016 30 845 24.95 23 73.4 24 1.3 34.3
13:40 1016 30 845 24.95 23.4 74.1 25 2.4 36.2
13:45 1016 30 845 24.95 22.9 73.2 25 2.2 36
13:50 1016 30 845 24.95 22.4 72.4 27 2.8 37
13:55 1016 30 845 24.95 22.9 73.3 26 2.4 36.3
14:00 1016 30 845 24.95 22.6 72.7 26 2.4 36.3
14:05 1016 30 845 24.95 21.8 71.3 29 3.2 37.8
14:10 1016 30 845 24.95 21.1 70 30 3.2 37.8
14:15 1015 29.97 845 24.95 21.3 70.3 28 2.3 36.1
14:20 1015 29.97 845 24.95 21.2 70.2 29 2.7 36.9
14:25 1015 29.97 844 24.92 21.3 70.3 28 2.3 36.1
14:30 1015 29.97 844 24.92 21.8 71.3 28 2.7 36.8
14:35 1015 29.97 844 24.92 21.7 71.1 29 3.2 37.7
14:40 1015 29.97 844 24.92 21.1 69.9 30 3.1 37.6
14:45 1015 29.97 844 24.92 21.9 71.5 30 3.6 38.4
14:50 1015 29.97 844 24.92 22.1 71.8 29 3.2 37.8
14:55 1015 29.97 844 24.92 21.7 71.1 29 3.3 38
15:00 1015 29.97 844 24.92 21.7 71.1 29 3.2 37.8
15:05 1015 29.97 844 24.92 22.5 72.4 29 3.7 38.6
15:10 1015 29.97 844 24.92 22.8 73 28 3.7 38.7
15:15 1015 29.97 844 24.92 22.7 72.8 28 3.4 38.1
15:20 1015 29.97 844 24.92 22.6 72.6 28 3.4 38.1
15:25 1015 29.97 844 24.92 22.6 72.6 27 3 37.4
15:30 1015 29.97 844 24.92 22.2 72 29 3.4 38.1
15:35 1014 29.94 844 24.92 21.9 71.4 28 2.9 37.2
15:40 1014 29.94 844 24.92 22.2 71.9 31 4.4 40
15:45 1015 29.97 844 24.92 21.8 71.2 36 6.1 43.1
15:50 1015 29.97 844 24.92 20.7 69.3 39 6.5 43.8
15:55 1015 29.97 844 24.92 20.2 68.4 40 6.3 43.3
16:00 1015 29.97 844 24.92 20 68 39 5.9 42.5
16:05 1015 29.97 844 24.92 19.8 67.6 41 6.3 43.3
16:10 1015 29.97 844 24.92 19.1 66.4 40 5.3 41.6
16:15 1015 29.97 844 24.92 19 66.2 49 8.1 46.6
16:20 1015 29.97 844 24.92 18.5 65.3 47 7 44.6
16:25 1015 29.97 844 24.92 18.5 65.3 46 6.8 44.3
16:30 1015 29.97 844 24.92 18.1 64.5 46 6.3 43.4
16:35 1015 29.97 844 24.92 18 64.4 43 5.4 41.8
16:40 1015 29.97 844 24.92 18 64.4 45 5.8 42.5
16:45 1015 29.97 845 24.95 17.7 63.8 48 6.7 44
16:50 1016 30 845 24.95 17 62.7 50 6.7 44.1
16:55 1016 30 845 24.95 16.7 62.1 51 6.7 44
17:00 1016 30 845 24.95 16.7 62 50 6.4 43.5
17:05 1016 30 845 24.95 16.7 62 49 6 42.7
17:10 1017 30.03 846 24.98 16.7 62 60 9.1 48.3
17:15 1017 30.03 846 24.98 15.6 60.1 59 7.8 46
17:20 1017 30.03 846 24.98 15.4 59.8 59 7.6 45.7
17:25 1017 30.03 846 24.98 15.3 59.5 66 8.9 48.1
17:30 1017 30.03 847 25.01 15.1 59.2 65 8.6 47.4
17:35 1018 30.06 847 25.01 14.7 58.4 66 8.4 47
17:40 1018 30.06 847 25.01 14.4 58 65 7.9 46.2
17:45 1018 30.06 847 25.01 13.9 57 68 8.1 46.5
17:50 1018 30.06 847 25.01 13.8 56.8 70 8.5 47.3
17:55 1018 30.06 847 25.01 13.6 56.5 75 9.2 48.6
18:00 1018 30.06 847 25.01 12.9 55.2 80 9.5 49.1
18:05 1017 30.03 846 24.98 12.6 54.7 79 9.2 48.5
18:10 1017 30.03 846 24.98 12.7 54.8 78 8.9 48
18:15 1017 30.03 846 24.98 12.9 55.1 75 8.5 47.3
18:20 1017 30.03 846 24.98 13 55.4 74 8.6 47.5
18:25 1017 30.03 846 24.98 13.2 55.8 73 8.5 47.3
18:30 1017 30.03 846 24.98 13.4 56.2 69 7.9 46.3
18:35 1017 30.03 846 24.98 13.6 56.4 73 8.8 47.9
18:40 1017 30.03 846 24.98 13.7 56.6 70 8.3 46.9
18:45 1017 30.03 846 24.98 13.8 56.8 69 8.2 46.8
18:50 1017 30.03 846 24.98 13.9 57 70 8.6 47.5
18:55 1017 30.03 846 24.98 14 57.3 67 8 46.5
19:00 1017 30.03 846 24.98 14.1 57.4 65 7.6 45.7
19:05 1017 30.03 846 24.98 14.3 57.8 64 7.6 45.7
19:10 1017 30.03 846 24.98 14.5 58 63 7.6 45.6
19:15 1017 30.03 846 24.98 14.7 58.4 62 7.6 45.8
19:20 1018 30.06 847 25.01 15 58.9 58 6.9 44.5
19:25 1017 30.03 846 24.98 15.1 59.2 60 7.5 45.6
19:30 1017 30.03 846 24.98 15.5 59.9 58 7.3 45.1
19:35 1017 30.03 846 24.98 15.6 60 59 7.7 45.8
19:40 1017 30.03 846 24.98 15.5 59.9 57 7.2 45
19:45 1017 30.03 846 24.98 15.6 60.2 56 7 44.6
19:50 1017 30.03 846 24.98 15.7 60.2 55 6.6 43.9
19:55 1017 30.03 846 24.98 15.7 60.3 56 7 44.7
20:00 1017 30.03 846 24.98 15.9 60.5 54 6.7 44
20:05 1017 30.03 846 24.98 15.8 60.5 56 7.2 45
20:10 1017 30.03 846 24.98 15.7 60.3 58 7.5 45.5
20:15 1017 30.03 846 24.98 15.5 59.9 54 6.4 43.5
20:20 1017 30.03 846 24.98 15.4 59.7 54 6.2 43.1
20:25 1017 30.03 846 24.98 15.3 59.6 52 5.7 42.3
20:30 1017 30.03 846 24.98 15.3 59.6 54 6.2 43.2
20:35 1017 30.03 846 24.98 15.3 59.5 54 6.2 43.2
20:40 1017 30.03 846 24.98 15.1 59.3 54 6 42.9
20:45 1017 30.03 846 24.98 15.2 59.3 53 5.8 42.5
20:50 1017 30.03 846 24.98 15.1 59.2 58 7 44.6
20:55 1017 30.03 846 24.98 14.7 58.5 61 7.5 45.4
21:00 1017 30.03 846 24.98 14.5 58 63 7.6 45.7
21:05 1017 30.03 847 25.01 14.2 57.5 66 8 46.4
21:10 1017 30.03 847 25.01 13.9 57 67 7.9 46.2
21:15 1018 30.06 847 25.01 13.8 56.8 67 7.8 46
21:20 1018 30.06 847 25.01 13.7 56.6 66 7.6 45.7
21:25 1018 30.06 847 25.01 13.6 56.5 66 7.5 45.5
21:30 1018 30.06 847 25.01 13.4 56.2 68 7.7 45.8
21:35 1018 30.06 847 25.01 13.3 56 68 7.5 45.6
21:40 1018 30.06 847 25.01 13.4 56.1 66 7.2 44.9
21:45 1018 30.06 847 25.01 13.3 56 69 7.7 45.9
21:50 1018 30.06 847 25.01 13 55.3 70 7.8 46
21:55 1018 30.06 847 25.01 12.7 54.9 72 7.8 46.1
22:00 1018 30.06 847 25.01 12.7 54.8 71 7.5 45.6
22:05 1018 30.06 848 25.04 12.4 54.4 74 7.9 46.2
22:10 1018 30.06 848 25.04 12.1 53.9 74 7.6 45.8
22:15 1019 30.09 848 25.04 12.1 53.7 73 7.5 45.5
22:20 1019 30.09 848 25.04 11.9 53.3 74 7.5 45.5
22:25 1019 30.09 848 25.04 11.6 52.8 75 7.3 45.1
22:30 1019 30.09 848 25.04 11.2 52.1 77 7.2 45
22:35 1019 30.09 848 25.04 10.9 51.7 75 6.7 44
22:40 1019 30.09 848 25.04 11 51.8 76 6.9 44.4
22:45 1019 30.09 848 25.04 10.9 51.6 76 6.9 44.4
22:50 1019 30.09 848 25.04 10.8 51.4 76 6.8 44.2
22:55 1019 30.09 848 25.04 10.7 51.2 76 6.7 44.1
23:00 1019 30.09 848 25.04 10.9 51.6 74 6.4 43.5
23:05 1019 30.09 848 25.04 11.1 51.9 73 6.5 43.7
23:10 1019 30.09 848 25.04 11.2 52.1 73 6.5 43.6
23:15 1019 30.09 849 25.07 11 51.9 74 6.5 43.7
23:20 1019 30.09 849 25.07 10.9 51.7 74 6.5 43.7
23:25 1020 30.12 849 25.07 10.7 51.3 75 6.5 43.6
23:30 1020 30.12 849 25.07 10.6 51 74 6.2 43.2
23:35 1020 30.12 849 25.07 10.7 51.3 74 6.3 43.4
23:40 1020 30.12 849 25.07 10.8 51.4 74 6.3 43.4
23:45 1020 30.12 849 25.07 10.8 51.4 74 6.4 43.6
23:50 1020 30.12 849 25.07 10.5 50.8 76 6.4 43.5
23:55 1020 30.12 849 25.07 10.4 50.7 76 6.4 43.5
24:00 1020 30.12 849 25.07 10.5 50.9 76 6.5 43.7